Terminal Aerodrome Forecast
Issued by NWS

Home | Current Version | Previous Version | Text Only | Print | Product List | Glossary On
Versions: 1 2 3 4 5 6 7 8 9 10 11 12 13 14 15 16 17 18
000
FTUS44 KJAN 070846 AAA
TAFHKS
TAF AMD
KHKS 070846Z 0709/0806 02003KT 5SM BR OVC008
     FM071200 36003KT 4SM BR OVC005
     FM071500 01004KT P6SM OVC010
     FM071900 34002KT P6SM OVC015
     FM072100 36004KT P6SM OVC025
     FM080300 36003KT P6SM OVC015=

USA.gov is the U.S. government's official web portal to all federal, state and local government web resources and services.